createdAt,value
2022-10-16T00:01:41.327Z,96.70
2022-10-16T00:04:08.124Z,96.70
2022-10-16T00:06:34.823Z,96.70
2022-10-16T00:09:01.687Z,96.70
2022-10-16T00:11:30.185Z,96.70
2022-10-16T00:13:58.469Z,96.60
2022-10-16T00:16:25.421Z,96.70
2022-10-16T00:18:52.135Z,96.60
2022-10-16T00:21:20.581Z,96.60
2022-10-16T00:23:47.507Z,96.60
2022-10-16T00:26:17.335Z,96.60
2022-10-16T00:28:46.256Z,96.70
2022-10-16T00:31:13.229Z,96.60
2022-10-16T00:33:40.529Z,96.60
2022-10-16T00:36:08.391Z,96.60
2022-10-16T00:38:35.564Z,96.60
2022-10-16T00:41:02.264Z,96.70
2022-10-16T00:43:38.564Z,96.60
2022-10-16T00:46:34.636Z,96.50
2022-10-16T00:49:01.888Z,96.60
2022-10-16T00:51:33.727Z,96.50
2022-10-16T00:54:01.118Z,96.70
2022-10-16T00:56:27.899Z,96.60
2022-10-16T00:58:54.709Z,96.70
2022-10-16T01:01:21.698Z,96.70
2022-10-16T01:03:48.596Z,96.50
2022-10-16T01:09:08.866Z,96.70
2022-10-16T01:11:53.688Z,96.70
2022-10-16T01:14:43.753Z,96.70
2022-10-16T01:17:15.525Z,96.60
2022-10-16T01:19:59.241Z,96.70
2022-10-16T01:22:31.201Z,96.60
2022-10-16T01:25:01.391Z,96.70
2022-10-16T01:27:29.557Z,96.60
2022-10-16T01:30:18.960Z,96.60
2022-10-16T01:32:54.222Z,96.60
2022-10-16T01:35:29.410Z,96.70
2022-10-16T01:38:03.038Z,96.70
2022-10-16T01:40:31.165Z,96.50
2022-10-16T01:43:01.524Z,96.70
2022-10-16T01:45:29.411Z,96.80
2022-10-16T01:47:56.815Z,96.70
2022-10-16T01:50:24.721Z,96.80
2022-10-16T01:52:52.920Z,96.80
2022-10-16T01:55:30.812Z,96.60
2022-10-16T01:57:58.927Z,96.80
2022-10-16T02:00:26.060Z,96.60
2022-10-16T02:02:54.150Z,96.70
2022-10-16T02:05:22.066Z,96.60
2022-10-16T02:07:49.652Z,96.70
2022-10-16T02:10:16.698Z,96.60
2022-10-16T02:12:46.761Z,96.70
2022-10-16T02:15:13.478Z,96.70
2022-10-16T02:17:40.371Z,96.70
2022-10-16T02:20:07.340Z,96.80
2022-10-16T02:22:40.307Z,96.70
2022-10-16T02:25:11.616Z,96.70
2022-10-16T02:27:49.101Z,96.80
2022-10-16T02:30:20.655Z,96.60
2022-10-16T02:32:49.030Z,96.70
2022-10-16T02:35:20.963Z,96.70
2022-10-16T02:37:48.891Z,96.70
2022-10-16T02:40:16.851Z,96.80
2022-10-16T02:42:45.164Z,96.70
2022-10-16T02:45:12.722Z,96.70
2022-10-16T02:47:39.427Z,96.60
2022-10-16T02:50:06.551Z,96.80
2022-10-16T02:52:33.357Z,96.80
2022-10-16T02:55:00.087Z,96.70
2022-10-16T02:57:27.227Z,96.70
2022-10-16T02:59:54.294Z,96.70
2022-10-16T03:02:21.116Z,96.80
2022-10-16T03:04:47.901Z,96.80
2022-10-16T03:07:14.594Z,96.80
2022-10-16T03:09:41.373Z,96.70
2022-10-16T03:12:08.197Z,96.80
2022-10-16T03:14:35.075Z,96.70
2022-10-16T03:17:01.778Z,96.70
2022-10-16T03:19:28.528Z,96.70
2022-10-16T03:21:55.259Z,96.80
2022-10-16T03:24:21.999Z,96.60
2022-10-16T03:26:48.867Z,96.70
2022-10-16T03:29:15.607Z,96.60
2022-10-16T03:31:42.342Z,96.80
2022-10-16T03:34:09.112Z,96.80
2022-10-16T03:36:35.985Z,96.80
2022-10-16T03:39:02.713Z,96.80
2022-10-16T03:41:29.589Z,96.70
2022-10-16T03:43:56.302Z,96.90
2022-10-16T03:46:22.992Z,96.70
2022-10-16T03:48:49.835Z,96.80
2022-10-16T03:51:16.589Z,96.80
2022-10-16T03:53:43.326Z,96.70
2022-10-16T03:56:10.140Z,96.70
2022-10-16T03:58:36.854Z,96.60
2022-10-16T04:01:03.598Z,96.70
2022-10-16T04:03:30.423Z,96.80
2022-10-16T04:05:57.596Z,96.70
2022-10-16T04:08:24.361Z,96.80
2022-10-16T04:10:51.196Z,96.90
2022-10-16T04:15:49.685Z,96.80
2022-10-16T04:18:16.522Z,96.80
2022-10-16T04:20:43.232Z,96.80
2022-10-16T04:23:19.937Z,96.80
2022-10-16T04:25:55.031Z,96.90
2022-10-16T04:28:21.802Z,96.80
2022-10-16T04:30:48.539Z,96.80
2022-10-16T04:33:15.399Z,96.80
2022-10-16T04:35:42.130Z,96.80
2022-10-16T04:38:09.139Z,96.90
2022-10-16T04:40:37.738Z,96.90
2022-10-16T04:43:04.918Z,96.90
2022-10-16T04:45:31.646Z,96.80
2022-10-16T04:47:58.986Z,96.80
2022-10-16T04:50:25.836Z,96.90
2022-10-16T04:52:52.639Z,96.80
2022-10-16T04:55:19.784Z,96.80
2022-10-16T04:57:46.732Z,96.80
2022-10-16T05:00:13.750Z,96.80
2022-10-16T05:02:40.666Z,96.70
2022-10-16T05:05:08.052Z,96.70
2022-10-16T05:07:34.820Z,96.80
2022-10-16T05:10:01.705Z,96.80
2022-10-16T05:12:28.422Z,96.80
2022-10-16T05:14:59.478Z,96.80
2022-10-16T05:17:27.163Z,96.80
2022-10-16T05:19:54.063Z,96.90
2022-10-16T05:22:20.836Z,96.70
2022-10-16T05:24:47.713Z,96.90
2022-10-16T05:27:19.881Z,96.90
2022-10-16T05:29:47.914Z,96.80
2022-10-16T05:32:15.329Z,96.70
2022-10-16T05:34:42.156Z,96.80
2022-10-16T05:37:09.174Z,96.90
2022-10-16T05:39:35.984Z,96.90
2022-10-16T05:42:02.697Z,96.90
2022-10-16T05:44:29.504Z,96.70
2022-10-16T05:46:56.310Z,96.90
2022-10-16T05:49:23.054Z,96.90
2022-10-16T05:51:49.885Z,96.90
2022-10-16T05:54:16.686Z,96.90
2022-10-16T05:56:43.486Z,96.80
2022-10-16T05:59:10.307Z,96.90
2022-10-16T06:01:37.062Z,96.90
2022-10-16T06:04:03.865Z,96.80
2022-10-16T06:06:31.945Z,96.80
2022-10-16T06:08:58.810Z,96.80
2022-10-16T06:11:27.303Z,96.90
2022-10-16T06:13:55.041Z,97.00
2022-10-16T06:16:22.107Z,97.10
2022-10-16T06:18:48.991Z,97.00
2022-10-16T06:21:17.997Z,96.90
2022-10-16T06:26:17.937Z,96.80
2022-10-16T06:28:44.678Z,96.80
2022-10-16T06:31:12.301Z,96.90
2022-10-16T06:33:39.806Z,96.90
2022-10-16T06:36:06.820Z,97.00
2022-10-16T06:38:33.592Z,97.10
2022-10-16T06:41:00.512Z,97.00
2022-10-16T06:43:27.704Z,97.00
2022-10-16T06:45:57.797Z,97.00
2022-10-16T06:48:24.886Z,97.00
2022-10-16T06:51:00.840Z,97.00
2022-10-16T06:53:29.388Z,97.00
2022-10-16T06:55:56.208Z,97.00
2022-10-16T06:58:23.133Z,97.00
2022-10-16T07:00:50.037Z,96.90
2022-10-16T07:03:16.808Z,96.90
2022-10-16T07:05:43.850Z,96.90
2022-10-16T07:08:10.638Z,96.90
2022-10-16T07:10:37.345Z,96.90
2022-10-16T07:13:04.104Z,96.90
2022-10-16T07:15:30.912Z,96.90
2022-10-16T07:17:57.646Z,97.10
2022-10-16T07:20:24.488Z,96.90
2022-10-16T07:22:51.742Z,97.00
2022-10-16T07:25:18.502Z,96.90
2022-10-16T07:27:45.217Z,97.00
2022-10-16T07:30:12.146Z,97.00
2022-10-16T07:32:38.944Z,97.00
2022-10-16T07:35:06.113Z,97.00
2022-10-16T07:37:32.999Z,97.00
2022-10-16T07:39:59.712Z,96.90
2022-10-16T07:42:26.429Z,96.90
2022-10-16T07:44:53.188Z,97.10
2022-10-16T07:47:19.917Z,96.90
2022-10-16T07:49:46.635Z,96.90
2022-10-16T07:52:13.497Z,96.80
2022-10-16T07:54:40.288Z,96.80
2022-10-16T07:57:07.012Z,96.90
2022-10-16T07:59:33.786Z,96.90
2022-10-16T08:02:00.606Z,96.90
2022-10-16T08:04:27.326Z,96.80
2022-10-16T08:06:55.407Z,96.80
2022-10-16T08:09:22.080Z,97.10
2022-10-16T08:11:48.811Z,97.00
2022-10-16T08:14:15.565Z,97.10
2022-10-16T08:16:42.244Z,97.10
2022-10-16T08:19:08.980Z,97.00
2022-10-16T08:21:35.821Z,96.90
2022-10-16T08:24:02.582Z,97.10
2022-10-16T08:26:29.315Z,97.10
2022-10-16T08:28:56.359Z,97.00
2022-10-16T08:31:23.842Z,97.30
2022-10-16T08:33:50.634Z,97.20
2022-10-16T08:36:17.796Z,97.20
2022-10-16T08:38:44.584Z,97.00
2022-10-16T08:41:14.154Z,97.30
2022-10-16T08:43:45.288Z,97.20
2022-10-16T08:46:38.356Z,97.20
2022-10-16T08:49:07.966Z,97.30
2022-10-16T08:51:39.034Z,97.20
2022-10-16T08:54:21.022Z,96.80
2022-10-16T08:56:47.710Z,96.90
2022-10-16T08:59:15.098Z,97.00
2022-10-16T09:01:42.831Z,97.10
2022-10-16T09:04:24.798Z,97.10
2022-10-16T09:06:54.732Z,96.90
2022-10-16T09:09:21.398Z,97.10
2022-10-16T09:11:48.053Z,96.90
2022-10-16T09:14:37.467Z,97.10
2022-10-16T09:17:16.099Z,97.10
2022-10-16T09:20:01.466Z,97.00
2022-10-16T09:22:29.705Z,97.10
2022-10-16T09:25:00.481Z,97.00
2022-10-16T09:27:28.097Z,97.10
2022-10-16T09:29:58.901Z,96.80
2022-10-16T09:32:26.724Z,97.10
2022-10-16T09:34:54.969Z,97.00
2022-10-16T09:37:23.554Z,97.00
2022-10-16T09:39:54.642Z,97.10
2022-10-16T09:42:29.013Z,97.00
2022-10-16T09:44:55.892Z,96.90
2022-10-16T09:47:24.668Z,97.10
2022-10-16T09:50:05.229Z,97.00
2022-10-16T09:52:32.085Z,97.20
2022-10-16T09:55:03.075Z,97.10
2022-10-16T09:57:31.270Z,96.80
2022-10-16T09:59:59.188Z,97.00
2022-10-16T10:02:36.250Z,97.20
2022-10-16T10:05:03.349Z,97.20
2022-10-16T10:07:37.092Z,97.20
2022-10-16T10:10:05.361Z,97.00
2022-10-16T10:12:33.963Z,97.00
2022-10-16T10:15:23.028Z,97.30
2022-10-16T10:17:51.196Z,97.10
2022-10-16T10:20:30.418Z,97.00
2022-10-16T10:22:57.433Z,97.00
2022-10-16T10:25:27.981Z,97.30
2022-10-16T10:28:03.649Z,97.10
2022-10-16T10:30:46.833Z,97.10
2022-10-16T10:33:19.887Z,97.20
2022-10-16T10:36:12.939Z,97.20
2022-10-16T10:38:51.430Z,96.90
2022-10-16T10:41:26.560Z,97.00
2022-10-16T10:44:14.677Z,96.90
2022-10-16T10:47:07.846Z,97.10
2022-10-16T10:49:40.551Z,97.10
2022-10-16T10:52:19.854Z,97.00
2022-10-16T10:55:05.425Z,97.10
2022-10-16T11:00:01.796Z,97.10
2022-10-16T11:02:39.015Z,97.20
2022-10-16T11:05:21.004Z,97.00
2022-10-16T11:07:53.798Z,97.00
2022-10-16T11:10:23.020Z,97.10
2022-10-16T11:12:54.020Z,97.10
2022-10-16T11:15:34.661Z,97.10
2022-10-16T11:18:01.457Z,97.10
2022-10-16T11:20:31.148Z,97.00
2022-10-16T11:23:01.432Z,97.00
2022-10-16T11:25:29.539Z,96.90
2022-10-16T11:28:04.944Z,97.10
2022-10-16T11:30:34.783Z,97.20
2022-10-16T11:33:19.938Z,97.20
2022-10-16T11:35:55.670Z,97.00
2022-10-16T11:38:22.460Z,97.10
2022-10-16T11:40:51.457Z,97.40
2022-10-16T11:43:21.663Z,97.20
2022-10-16T11:45:53.551Z,97.20
2022-10-16T11:48:33.636Z,97.20
2022-10-16T11:51:12.150Z,97.30
2022-10-16T11:53:50.743Z,97.30
2022-10-16T11:56:18.667Z,97.30
2022-10-16T11:58:59.991Z,97.20
2022-10-16T12:01:32.751Z,97.20
2022-10-16T12:04:18.000Z,97.20
2022-10-16T12:06:47.851Z,97.20
2022-10-16T12:09:18.699Z,97.20
2022-10-16T12:11:45.409Z,97.20
2022-10-16T12:14:12.225Z,97.30
2022-10-16T12:17:00.692Z,97.00
2022-10-16T12:19:28.707Z,97.20
2022-10-16T12:21:57.214Z,97.30
2022-10-16T12:24:40.163Z,97.20
2022-10-16T12:27:07.964Z,97.30
2022-10-16T12:29:34.973Z,97.30
2022-10-16T12:32:03.301Z,97.20
2022-10-16T12:34:30.027Z,97.40
2022-10-16T12:36:57.350Z,97.40
2022-10-16T12:39:25.601Z,97.20
2022-10-16T12:42:19.324Z,97.30
2022-10-16T12:44:46.332Z,97.30
2022-10-16T12:47:37.163Z,97.30
2022-10-16T12:50:09.092Z,97.40
2022-10-16T12:52:38.985Z,97.40
2022-10-16T12:55:06.984Z,97.40
2022-10-16T12:57:41.008Z,97.30
2022-10-16T13:00:19.928Z,97.40
2022-10-16T13:03:08.960Z,97.40
2022-10-16T13:05:57.818Z,97.30
2022-10-16T13:08:33.593Z,97.30
2022-10-16T13:11:10.443Z,97.20
2022-10-16T13:13:46.037Z,97.30
2022-10-16T13:16:12.760Z,97.40
2022-10-16T13:18:57.654Z,97.20
2022-10-16T13:21:30.617Z,97.40
2022-10-16T13:24:03.290Z,97.40
2022-10-16T13:26:48.813Z,97.50
2022-10-16T13:29:15.720Z,97.50
2022-10-16T13:31:43.854Z,97.40
2022-10-16T13:34:22.007Z,97.40
2022-10-16T13:36:53.236Z,97.50
2022-10-16T13:39:30.274Z,97.60
2022-10-16T13:42:14.730Z,97.40
2022-10-16T13:44:45.807Z,97.40
2022-10-16T13:47:18.746Z,97.30
2022-10-16T13:49:46.002Z,97.30
2022-10-16T13:52:21.948Z,97.30
2022-10-16T13:54:48.922Z,97.40
2022-10-16T13:57:26.778Z,97.40
2022-10-16T13:59:55.011Z,97.30
2022-10-16T14:02:27.819Z,97.30
2022-10-16T14:04:55.262Z,97.40
2022-10-16T14:07:26.987Z,97.30
2022-10-16T14:09:54.471Z,97.30
2022-10-16T14:12:25.473Z,97.30
2022-10-16T14:14:55.342Z,97.20
2022-10-16T14:17:27.223Z,97.10
2022-10-16T14:19:59.561Z,97.20
2022-10-16T14:22:42.405Z,97.30
2022-10-16T14:25:24.385Z,97.40
2022-10-16T14:27:58.084Z,97.20
2022-10-16T14:30:24.952Z,97.30
2022-10-16T14:33:02.407Z,97.30
2022-10-16T14:35:33.839Z,97.40
2022-10-16T14:38:01.535Z,97.40
2022-10-16T14:40:30.451Z,97.50
2022-10-16T14:42:57.303Z,97.40
2022-10-16T14:45:25.947Z,97.40
2022-10-16T14:47:57.825Z,97.30
2022-10-16T14:50:24.939Z,97.50
2022-10-16T14:52:52.005Z,97.40
2022-10-16T14:55:19.186Z,97.50
2022-10-16T14:57:46.552Z,97.40
2022-10-16T15:00:18.102Z,97.50
2022-10-16T15:02:45.152Z,97.40
2022-10-16T15:05:16.787Z,97.30
2022-10-16T15:07:43.550Z,97.50
2022-10-16T15:10:10.931Z,97.60
2022-10-16T15:12:37.713Z,97.70
2022-10-16T15:15:16.835Z,97.50
2022-10-16T15:17:43.525Z,97.70
2022-10-16T15:20:10.231Z,97.50
2022-10-16T15:22:37.000Z,97.50
2022-10-16T15:25:10.763Z,97.50
2022-10-16T15:27:41.036Z,97.60
2022-10-16T15:30:07.976Z,97.60
2022-10-16T15:32:34.662Z,97.40
2022-10-16T15:35:01.516Z,97.50
2022-10-16T15:37:28.517Z,97.50
2022-10-16T15:39:55.457Z,97.40
2022-10-16T15:42:22.224Z,97.30
2022-10-16T15:44:50.953Z,97.40
2022-10-16T15:47:17.648Z,97.60
2022-10-16T15:49:44.690Z,97.60
2022-10-16T15:52:11.424Z,97.50
2022-10-16T15:54:38.269Z,97.40
2022-10-16T15:57:05.114Z,97.60
2022-10-16T15:59:31.982Z,97.60
2022-10-16T16:01:58.752Z,97.40
2022-10-16T16:04:42.824Z,97.50
2022-10-16T16:07:10.455Z,97.50
2022-10-16T16:09:37.327Z,97.50
2022-10-16T16:12:04.101Z,97.60
2022-10-16T16:14:30.855Z,97.60
2022-10-16T16:16:57.883Z,97.50
2022-10-16T16:19:24.869Z,97.40
2022-10-16T16:21:51.607Z,97.40
2022-10-16T16:24:19.184Z,97.50
2022-10-16T16:26:46.983Z,97.50
2022-10-16T16:29:14.645Z,97.50
2022-10-16T16:31:41.866Z,97.50
2022-10-16T16:34:09.151Z,97.50
2022-10-16T16:36:37.023Z,97.40
2022-10-16T16:39:03.852Z,97.50
2022-10-16T16:41:31.350Z,97.50
2022-10-16T16:44:05.466Z,97.40
2022-10-16T16:46:33.373Z,97.60
2022-10-16T16:49:00.485Z,97.50
2022-10-16T16:51:27.470Z,97.60
2022-10-16T16:53:54.692Z,97.60
2022-10-16T16:56:22.257Z,97.40
2022-10-16T16:58:50.066Z,97.60
2022-10-16T17:01:21.394Z,97.50
2022-10-16T17:03:50.861Z,97.50
2022-10-16T17:06:20.679Z,97.50
2022-10-16T17:08:48.627Z,97.80
2022-10-16T17:11:33.491Z,97.60
2022-10-16T17:14:00.976Z,97.50
2022-10-16T17:16:29.357Z,97.70
2022-10-16T17:18:56.218Z,97.60
2022-10-16T17:21:23.279Z,97.40
2022-10-16T17:23:52.241Z,97.50
2022-10-16T17:26:19.098Z,97.40
2022-10-16T17:28:45.849Z,97.60
2022-10-16T17:31:12.673Z,97.50
2022-10-16T17:33:39.674Z,97.70
2022-10-16T17:36:06.852Z,97.60
2022-10-16T17:38:33.623Z,97.60
2022-10-16T17:41:10.235Z,97.50
2022-10-16T17:43:37.668Z,97.50
2022-10-16T17:46:04.578Z,97.60
2022-10-16T17:48:31.347Z,97.50
2022-10-16T17:50:58.057Z,97.50
2022-10-16T17:53:24.758Z,97.50
2022-10-16T17:55:57.093Z,97.50
2022-10-16T17:58:23.897Z,97.80
2022-10-16T18:00:50.643Z,97.60
2022-10-16T18:03:17.460Z,97.70
2022-10-16T18:05:44.198Z,97.60
2022-10-16T18:08:10.910Z,97.70
2022-10-16T18:10:45.250Z,97.50
2022-10-16T18:13:11.988Z,97.50
2022-10-16T18:15:38.716Z,97.50
2022-10-16T18:18:06.048Z,97.60
2022-10-16T18:20:32.788Z,97.70
2022-10-16T18:22:59.506Z,97.50
2022-10-16T18:25:26.371Z,97.50
2022-10-16T18:27:53.086Z,97.70
2022-10-16T18:30:19.853Z,97.70
2022-10-16T18:32:46.724Z,97.70
2022-10-16T18:37:45.189Z,97.60
2022-10-16T18:40:12.109Z,97.50
2022-10-16T18:42:38.924Z,97.60
2022-10-16T18:45:05.809Z,97.70
2022-10-16T18:47:32.620Z,97.60
2022-10-16T18:49:59.328Z,97.70
2022-10-16T18:52:27.058Z,97.60
2022-10-16T18:54:55.828Z,97.70
2022-10-16T18:57:22.578Z,97.60
2022-10-16T18:59:49.397Z,97.70
2022-10-16T19:02:16.216Z,97.60
2022-10-16T19:04:42.906Z,97.70
2022-10-16T19:07:09.596Z,97.60
2022-10-16T19:09:36.346Z,97.60
2022-10-16T19:12:03.197Z,97.60
2022-10-16T19:14:30.245Z,97.80
2022-10-16T19:16:57.015Z,97.70
2022-10-16T19:19:23.951Z,97.80
2022-10-16T19:21:56.151Z,97.70
2022-10-16T19:24:22.983Z,97.60
2022-10-16T19:26:49.895Z,97.70
2022-10-16T19:29:16.586Z,97.60
2022-10-16T19:31:43.404Z,97.70
2022-10-16T19:34:10.509Z,97.70
2022-10-16T19:36:38.697Z,97.60
2022-10-16T19:39:11.987Z,97.70
2022-10-16T19:41:38.874Z,97.60
2022-10-16T19:44:07.259Z,97.50
2022-10-16T19:46:34.456Z,97.70
2022-10-16T19:49:02.209Z,97.80
2022-10-16T19:51:29.440Z,97.60
2022-10-16T19:53:57.677Z,97.70
2022-10-16T19:56:25.392Z,97.80
2022-10-16T19:58:52.678Z,97.70
2022-10-16T20:01:19.667Z,97.80
2022-10-16T20:03:47.973Z,97.70
2022-10-16T20:06:15.367Z,97.50
2022-10-16T20:08:43.185Z,97.90
2022-10-16T20:11:11.681Z,97.60
2022-10-16T20:13:41.446Z,97.60
2022-10-16T20:16:09.735Z,97.70
2022-10-16T20:18:36.587Z,97.40
2022-10-16T20:21:08.435Z,97.60
2022-10-16T20:23:35.203Z,97.70
2022-10-16T20:26:04.093Z,97.50
2022-10-16T20:28:31.589Z,97.60
2022-10-16T20:30:58.509Z,97.90
2022-10-16T20:33:25.230Z,97.60
2022-10-16T20:35:51.931Z,97.30
2022-10-16T20:38:19.004Z,97.70
2022-10-16T20:40:47.335Z,97.60
2022-10-16T20:43:15.311Z,97.50
2022-10-16T20:45:42.165Z,97.60
2022-10-16T20:48:09.244Z,97.50
2022-10-16T20:50:35.947Z,97.40
2022-10-16T20:53:02.851Z,97.60
2022-10-16T20:55:29.574Z,97.60
2022-10-16T20:57:56.351Z,97.60
2022-10-16T21:00:23.268Z,97.60
2022-10-16T21:02:50.394Z,97.50
2022-10-16T21:05:17.470Z,97.60
2022-10-16T21:07:44.260Z,97.60
2022-10-16T21:10:11.250Z,97.50
2022-10-16T21:12:37.996Z,97.60
2022-10-16T21:15:19.955Z,97.60
2022-10-16T21:17:46.701Z,97.60
2022-10-16T21:20:13.548Z,97.70
2022-10-16T21:22:40.270Z,97.50
2022-10-16T21:25:07.785Z,97.60
2022-10-16T21:27:38.258Z,97.50
2022-10-16T21:30:06.156Z,97.60
2022-10-16T21:32:34.837Z,97.60
2022-10-16T21:35:01.928Z,97.60
2022-10-16T21:37:28.719Z,97.60
2022-10-16T21:39:55.488Z,97.70
2022-10-16T21:42:22.375Z,97.70
2022-10-16T21:44:49.070Z,97.60
2022-10-16T21:47:15.807Z,97.60
2022-10-16T21:49:42.628Z,97.50
2022-10-16T21:52:09.492Z,97.60
2022-10-16T21:54:36.208Z,97.50
2022-10-16T21:59:34.791Z,97.50
2022-10-16T22:02:03.227Z,97.60
2022-10-16T22:04:30.041Z,97.60
2022-10-16T22:06:56.826Z,97.60
2022-10-16T22:09:23.620Z,97.60
2022-10-16T22:11:51.056Z,97.50
2022-10-16T22:14:18.685Z,97.50
2022-10-16T22:16:45.917Z,97.70
2022-10-16T22:19:13.363Z,97.60
2022-10-16T22:21:40.724Z,97.70
2022-10-16T22:24:07.949Z,97.60
2022-10-16T22:26:35.251Z,97.80
2022-10-16T22:29:02.199Z,97.60
2022-10-16T22:31:29.052Z,97.80
2022-10-16T22:33:59.566Z,97.70
2022-10-16T22:36:26.765Z,97.70
2022-10-16T22:38:53.631Z,97.60
2022-10-16T22:41:20.776Z,97.60
2022-10-16T22:43:50.603Z,97.50
2022-10-16T22:46:18.478Z,97.80
2022-10-16T22:48:45.382Z,97.80
2022-10-16T22:51:16.722Z,97.70
2022-10-16T22:53:44.778Z,97.70
2022-10-16T22:56:11.914Z,97.60
2022-10-16T22:58:38.694Z,97.70
2022-10-16T23:01:13.319Z,97.70
2022-10-16T23:03:40.013Z,97.70
2022-10-16T23:06:06.852Z,97.60
2022-10-16T23:08:33.774Z,97.60
2022-10-16T23:11:02.158Z,97.80
2022-10-16T23:13:29.169Z,97.70
2022-10-16T23:15:55.978Z,97.80
2022-10-16T23:18:22.687Z,97.70
2022-10-16T23:20:49.599Z,97.80
2022-10-16T23:23:16.550Z,97.80
2022-10-16T23:25:49.189Z,97.70
2022-10-16T23:30:47.662Z,97.70
2022-10-16T23:33:14.369Z,97.70
2022-10-16T23:35:41.152Z,97.60
2022-10-16T23:38:08.067Z,97.60
2022-10-16T23:40:34.841Z,97.60
2022-10-16T23:43:01.581Z,97.60
2022-10-16T23:45:28.355Z,97.60
2022-10-16T23:47:55.071Z,97.60
2022-10-16T23:50:21.770Z,97.70
2022-10-16T23:52:48.605Z,97.70
2022-10-16T23:55:15.355Z,97.70
2022-10-16T23:57:42.162Z,97.60
